This is the latest recevied weather packets stored in our database for station/object WI5KEY. If no packets are shown the sender has not sent any weather packets the latest 10 day(s).
| Time | Temp. | Humidity | Pressure | Rain* | Wind** | Luminosity | Snow |
|---|---|---|---|---|---|---|---|
| 1777824920 | 23.89° C | 52% | 1023.8 hPa | 0 mm | - | - | - |
| 1777824008 | 23.89° C | 57% | 1024 hPa | 0 mm | - | - | - |
| 1777823107 | 23.33° C | 57% | 1024 hPa | 0 mm | - | - | - |
| 1777822205 | 23.33° C | 59% | 1024 hPa | 0 mm | - | - | - |
| 1777821359 | 22.22° C | 64% | 1023.9 hPa | 0 mm | - | - | - |
| 1777820460 | 21.67° C | 68% | 1023.9 hPa | 0 mm | - | - | - |
| 1777819550 | 20.56° C | 76% | 1023.8 hPa | 0 mm | - | - | - |
| 1777818645 | 18.89° C | 84% | 1023.6 hPa | 0 mm | - | - | - |
| 1777817744 | 17.78° C | 91% | 1023.7 hPa | 0 mm | - | - | - |
| 1777816837 | 16.11° C | 93% | 1023.6 hPa | 0 mm | - | - | - |
| 1777815934 | 15° C | 94% | 1023.3 hPa | 0 mm | - | - | - |
| 1777815032 | 13.89° C | 94% | 1023.2 hPa | 0 mm | - | - | - |
| 1777814133 | 12.78° C | 93% | 1023.1 hPa | 0 mm | - | - | - |
| 1777813230 | 12.22° C | 93% | 1023.1 hPa | 0 mm | - | - | - |
| 1777812331 | 11.67° C | 92% | 1023 hPa | 0 mm | - | - | - |
| 1777811427 | 11.67° C | 92% | 1023 hPa | 0 mm | - | - | - |
| 1777810527 | 11.67° C | 92% | 1023 hPa | 0 mm | - | - | - |
| 1777809625 | 11.67° C | 92% | 1022.7 hPa | 0 mm | - | - | - |
| 1777808723 | 11.67° C | 92% | 1022.5 hPa | 0 mm | - | - | - |
| 1777807822 | 11.67° C | 91% | 1022.5 hPa | 0 mm | - | - | - |
| 1777806922 | 11.67° C | 91% | 1022.3 hPa | 0 mm | - | - | - |
| 1777806020 | 12.22° C | 91% | 1022 hPa | 0 mm | - | - | - |
| 1777805134 | 12.22° C | 91% | 1022 hPa | 0 mm | - | - | - |
| 1777804220 | 12.22° C | 91% | 1021.7 hPa | 0 mm | - | - | - |
| 1777803317 | 12.22° C | 91% | 1021.6 hPa | 0 mm | - | - | - |
* Rain latest hour (hover to see other rain measurements)
** Current wind speed in m/s (hover to see current wind gust speed)